createdAt,value
2022-10-31T00:09:06.484Z,74.09
2022-10-31T00:19:30.621Z,74.34
2022-10-31T00:24:33.455Z,74.82
2022-10-31T00:29:38.347Z,75.07
2022-10-31T00:34:48.245Z,74.83
2022-10-31T00:39:51.049Z,74.35
2022-10-31T00:44:53.814Z,74.73
2022-10-31T00:50:03.065Z,75.04
2022-10-31T00:55:06.390Z,74.75
2022-10-31T01:00:10.662Z,75.01
2022-10-31T01:05:19.350Z,75.12
2022-10-31T01:10:22.135Z,74.80
2022-10-31T01:15:26.569Z,75.05
2022-10-31T01:26:09.706Z,74.40
2022-10-31T01:31:12.891Z,74.76
2022-10-31T01:36:18.652Z,76.41
2022-10-31T01:41:29.295Z,76.25
2022-10-31T01:46:37.229Z,75.50
2022-10-31T01:51:46.811Z,76.24
2022-10-31T01:56:59.662Z,75.53
2022-10-31T02:02:04.123Z,75.57
2022-10-31T02:07:13.729Z,76.45
2022-10-31T02:12:23.181Z,76.21
2022-10-31T02:17:26.584Z,75.66
2022-10-31T02:22:39.523Z,76.05
2022-10-31T02:44:33.068Z,75.15
2022-10-31T02:49:46.288Z,75.42
2022-10-31T02:54:50.503Z,76.03
2022-10-31T03:00:03.570Z,76.34
2022-10-31T03:26:29.668Z,76.13
2022-10-31T03:31:40.473Z,76.41
2022-10-31T03:36:46.536Z,76.65
2022-10-31T03:47:20.830Z,75.72
2022-10-31T03:52:30.358Z,76.23
2022-10-31T03:57:42.714Z,76.44
2022-10-31T04:19:01.226Z,75.61
2022-10-31T04:24:05.771Z,76.33
2022-10-31T04:29:08.677Z,77.07
2022-10-31T04:34:18.467Z,77.54
2022-10-31T04:39:24.302Z,77.29
2022-10-31T04:49:48.257Z,77.84
2022-10-31T05:11:04.331Z,76.87
2022-10-31T05:16:08.364Z,77.55
2022-10-31T05:21:11.290Z,78.52
2022-10-31T05:26:19.789Z,78.53
2022-10-31T05:31:26.498Z,78.09
2022-10-31T05:36:29.467Z,78.42
2022-10-31T05:52:31.665Z,77.99
2022-10-31T06:08:17.299Z,77.24
2022-10-31T06:18:46.756Z,77.64
2022-10-31T06:23:49.761Z,78.42
2022-10-31T06:28:52.717Z,79.26
2022-10-31T06:50:17.161Z,78.11
2022-10-31T06:55:20.196Z,79.12
2022-10-31T07:00:23.975Z,80.20
2022-10-31T07:10:58.871Z,78.98
2022-10-31T07:16:14.345Z,79.99
2022-10-31T07:21:18.605Z,80.18
2022-10-31T07:37:10.109Z,79.38
2022-10-31T07:42:15.201Z,80.34
2022-10-31T07:47:18.030Z,81.22
2022-10-31T07:57:46.921Z,80.03
2022-10-31T08:02:49.702Z,81.07
2022-10-31T08:18:43.617Z,80.27
2022-10-31T08:23:46.457Z,81.28
2022-10-31T08:34:14.784Z,80.68
2022-10-31T08:44:54.395Z,80.50
2022-10-31T08:49:57.660Z,81.68
2022-10-31T08:55:00.658Z,82.41
2022-10-31T09:00:10.253Z,82.58
2022-10-31T09:05:13.056Z,82.04
2022-10-31T09:10:15.978Z,83.36
2022-10-31T09:15:24.402Z,83.37
2022-10-31T09:20:27.341Z,82.89
2022-10-31T09:40:42.455Z,82.16
2022-10-31T09:56:38.974Z,81.72
2022-10-31T10:01:49.673Z,82.90
2022-10-31T10:12:35.153Z,83.60
2022-10-31T10:17:44.056Z,82.54
2022-10-31T10:22:55.741Z,83.77
2022-10-31T10:28:17.033Z,83.57
2022-10-31T10:38:54.151Z,82.87
2022-10-31T10:43:56.953Z,83.55
2022-10-31T10:49:08.717Z,84.34
2022-10-31T10:54:41.420Z,84.35
2022-10-31T10:59:44.227Z,83.28
2022-10-31T11:04:52.109Z,84.39
2022-10-31T11:10:21.900Z,84.36
2022-10-31T11:15:27.536Z,83.09
2022-10-31T11:20:36.832Z,84.16
2022-10-31T11:25:51.064Z,83.91
2022-10-31T11:30:57.566Z,83.33
2022-10-31T11:36:02.313Z,84.33
2022-10-31T11:41:16.595Z,84.45
2022-10-31T11:46:24.599Z,83.18
2022-10-31T11:51:30.974Z,83.88
2022-10-31T11:56:45.381Z,83.96
2022-10-31T12:13:03.687Z,82.36
2022-10-31T12:29:34.946Z,82.42
2022-10-31T12:34:56.947Z,81.70
2022-10-31T13:01:40.115Z,81.12
2022-10-31T13:06:48.301Z,81.34
2022-10-31T13:11:55.346Z,81.83
2022-10-31T13:17:15.801Z,81.69
2022-10-31T13:33:22.117Z,80.57
2022-10-31T13:38:56.128Z,80.56
2022-10-31T14:10:11.444Z,81.38
2022-10-31T14:20:37.861Z,81.27
2022-10-31T14:30:55.246Z,81.23
2022-10-31T14:36:13.710Z,81.05
2022-10-31T14:41:47.325Z,80.42
2022-10-31T14:52:36.875Z,79.72
2022-10-31T14:57:48.863Z,80.61
2022-10-31T15:03:04.995Z,80.90
2022-10-31T15:08:29.074Z,80.78
2022-10-31T15:13:31.921Z,80.87
2022-10-31T15:24:05.733Z,80.47
2022-10-31T15:39:32.883Z,81.47
2022-10-31T15:44:37.920Z,81.09
2022-10-31T15:55:20.967Z,80.50
2022-10-31T16:00:27.072Z,80.75
2022-10-31T16:05:37.736Z,81.70
2022-10-31T16:10:44.209Z,81.31
2022-10-31T16:21:15.028Z,80.87
2022-10-31T16:31:54.638Z,80.67
2022-10-31T16:42:20.498Z,80.96
2022-10-31T16:47:26.085Z,81.34
2022-10-31T16:52:38.070Z,81.93
2022-10-31T16:57:53.320Z,81.95
2022-10-31T17:02:59.138Z,81.64
2022-10-31T17:13:23.728Z,82.74
2022-10-31T17:24:02.188Z,81.28
2022-10-31T17:29:05.051Z,82.19
2022-10-31T17:34:08.407Z,82.68
2022-10-31T17:39:16.714Z,82.97
2022-10-31T17:44:19.852Z,82.58
2022-10-31T17:54:44.392Z,82.04
2022-10-31T18:20:59.270Z,81.99
2022-10-31T18:26:05.619Z,82.32
2022-10-31T18:31:08.877Z,82.79
2022-10-31T18:36:21.032Z,82.78
2022-10-31T18:41:24.185Z,82.41
2022-10-31T18:46:28.001Z,82.89
2022-10-31T18:51:37.376Z,82.96
2022-10-31T18:56:40.160Z,82.36
2022-10-31T19:01:43.143Z,82.46
2022-10-31T19:06:55.912Z,82.68
2022-10-31T19:22:56.805Z,81.57
2022-10-31T19:28:00.602Z,82.54
2022-10-31T19:33:06.602Z,83.08
2022-10-31T19:38:19.858Z,82.71
2022-10-31T19:53:55.616Z,82.83
2022-10-31T20:04:11.942Z,83.30
2022-10-31T20:14:56.782Z,82.34
2022-10-31T20:19:59.530Z,83.22
2022-10-31T20:35:53.456Z,82.23
2022-10-31T20:41:01.731Z,82.96
2022-10-31T20:46:08.190Z,83.04
2022-10-31T20:51:20.135Z,83.03
2022-10-31T20:56:25.159Z,82.66
2022-10-31T21:29:23.111Z,82.13
2022-10-31T21:34:26.774Z,82.67
2022-10-31T21:39:35.051Z,82.69
2022-10-31T21:44:37.888Z,82.37
2022-10-31T21:49:40.770Z,82.83
2022-10-31T22:10:26.641Z,82.70
2022-10-31T22:15:30.030Z,82.60
2022-10-31T22:20:32.856Z,83.30
2022-10-31T22:25:42.554Z,83.33
2022-10-31T22:30:45.753Z,82.43
2022-10-31T22:35:48.656Z,83.22
2022-10-31T22:51:49.858Z,82.07
2022-10-31T22:56:52.759Z,82.66
2022-10-31T23:07:32.859Z,81.81
2022-10-31T23:12:36.683Z,82.64
2022-10-31T23:23:01.742Z,82.17
2022-10-31T23:28:04.931Z,82.57
2022-10-31T23:38:26.475Z,83.22
2022-10-31T23:43:30.439Z,82.81
2022-10-31T23:59:32.301Z,82.13
